Perseverance — WDD5594 — position and weather

sailwx.info

Track history (hours):
 
Tides and Currents Weather Stations Pressure Air Temp Water Temp Dewpoint Dewpoint Depression Visibility Wind Speed Wind Dir Waves Ship Positions

Perseverance

Owner: Cooper, Mark E, Toledo, OR. More information available from US FCC via Universal Licensing System and Coast Guard Vessel Documentation Center.

Last reported at 2015-Aug-29 08:34 UTC. Time now 2015-Aug-29 09:25 UTC.
Position N 46°11' W 123°52'.

MMSI: 367618000.

Date/timePositionNaut miles runAvg speedWind from/ knotsBaromVisibWave heightAir tempDewpointWater temp
2015-Aug-29 08:34N 46°11' W 123°52'0 0.0
2015-Aug-29 07:34N 46°11' W 123°52'0 0.0
2015-Aug-29 06:34N 46°11' W 123°52'1 1.3
2015-Aug-29 05:34N 46°11' W 123°54'9 8.9
2015-Aug-29 04:34N 46°14' W 124°06'8 7.7
2015-Aug-29 03:34N 46°10' W 124°15'8 7.6
2015-Aug-29 02:34N 46°06' W 124°25'8 8.3
2015-Aug-29 01:33N 46°01' W 124°34'7 7.1
2015-Aug-29 00:33N 45°58' W 124°43'2 2.5
2015-Aug-28 23:33N 45°55' W 124°44'3 3.0
2015-Aug-28 22:33N 45°52' W 124°44'3 3.0
2015-Aug-28 21:34N 45°49' W 124°44'3 3.1
2015-Aug-28 20:33N 45°46' W 124°43'4 4.5
2015-Aug-28 19:34N 45°51' W 124°44'7 7.4
2015-Aug-28 18:33N 45°58' W 124°44'2 2.3
2015-Aug-28 17:33N 45°56' W 124°45'7 6.6
2015-Aug-28 16:33N 45°50' W 124°44'6 6.1
2015-Aug-28 15:34N 45°44' W 124°46'6 5.6
2015-Aug-28 14:33N 45°40' W 124°40'3 2.8
2015-Aug-28 13:34N 45°39' W 124°36'0 0.5
2015-Aug-28 12:33N 45°39' W 124°37'0 0.4
2015-Aug-28 11:33N 45°39' W 124°37'0 0.4
2015-Aug-28 10:33N 45°38' W 124°38'0 0.3
2015-Aug-28 09:33N 45°38' W 124°38'0 0.2
2015-Aug-28 08:34N 45°38' W 124°37'2 2.2
2015-Aug-28 07:33N 45°36' W 124°39'3 3.3
2015-Aug-28 06:34N 45°32' W 124°39'4 3.6
2015-Aug-28 05:33N 45°29' W 124°40'5 4.8
2015-Aug-28 04:34N 45°24' W 124°41'5 4.3
2015-Aug-28 03:29N 45°20' W 124°43'3 3.3
2015-Aug-28 02:34N 45°17' W 124°45'8 7.9
2015-Aug-28 01:31N 45°09' W 124°45'8 8.5
2015-Aug-28 00:33N 45°00' W 124°44'6 6.3
2015-Aug-27 23:34N 44°60' W 124°35'9 8.5
2015-Aug-27 22:33N 45°07' W 124°29'9 8.9
2015-Aug-27 21:33N 45°15' W 124°24'9 8.9
2015-Aug-27 20:33N 45°24' W 124°25'9 8.9
2015-Aug-27 19:33N 45°33' W 124°28'6 6.0
2015-Aug-27 18:33N 45°38' W 124°33'9 8.5
2015-Aug-27 17:33N 45°43' W 124°42'6 6.4
2015-Aug-27 16:33N 45°50' W 124°43'3 2.8
2015-Aug-27 15:33N 45°47' W 124°43'4 4.4
2015-Aug-27 14:33N 45°51' W 124°43'1 1.0
2015-Aug-27 13:34N 45°52' W 124°43'1 0.8
2015-Aug-27 12:33N 45°53' W 124°42'0 0.1
2015-Aug-27 11:33N 45°53' W 124°43'4 4.1
2015-Aug-27 10:33N 45°55' W 124°38'4 4.1
2015-Aug-27 09:33N 45°58' W 124°34'4 4.1
2015-Aug-27 08:34N 46°01' W 124°30'4 4.5
2015-Aug-27 07:33N 46°04' W 124°24'4 4.4
2015-Aug-27 06:34N 46°07' W 124°19'4 3.9
2015-Aug-27 05:34N 46°09' W 124°15'5 5.4
2015-Aug-27 04:34N 46°13' W 124°09'6 6.3
2015-Aug-27 03:34N 46°15' W 124°01'7 6.8
2015-Aug-27 02:33N 46°11' W 123°53'0 0.5
2015-Aug-27 01:34N 46°11' W 123°52'0 0.0
2015-Aug-27 00:34N 46°11' W 123°52'0 0.0
2015-Aug-26 23:34N 46°11' W 123°52'0 0.0
2015-Aug-26 22:34N 46°11' W 123°52'0 0.0
2015-Aug-26 21:34N 46°11' W 123°52'0 0.0
2015-Aug-26 20:34N 46°11' W 123°52'0 0.0
2015-Aug-26 19:34N 46°11' W 123°52'0 0.0
2015-Aug-26 18:34N 46°11' W 123°52'0 0.0
2015-Aug-26 17:33N 46°11' W 123°52'0 0.0
2015-Aug-26 16:33N 46°11' W 123°52'0 0.0
2015-Aug-26 15:34N 46°11' W 123°52'0 0.0
2015-Aug-26 14:34N 46°11' W 123°52'0 0.0
2015-Aug-26 13:34N 46°11' W 123°52'0 0.0
2015-Aug-26 12:34N 46°11' W 123°52'0 0.0
2015-Aug-26 11:34N 46°11' W 123°52'0 0.0
2015-Aug-26 10:34N 46°11' W 123°52'0 0.0
2015-Aug-26 09:34N 46°11' W 123°52'0 0.0
2015-Aug-26 08:34N 46°11' W 123°52'0 0.0
2015-Aug-26 07:34N 46°11' W 123°52'0 0.0
2015-Aug-26 06:34N 46°11' W 123°52'0 0.0
2015-Aug-26 05:34N 46°11' W 123°52'0 0.0
2015-Aug-26 04:34N 46°11' W 123°52'0 0.0
2015-Aug-26 03:34N 46°11' W 123°52'0 0.0
2015-Aug-26 02:34N 46°11' W 123°52'0 0.0
2015-Aug-26 01:34N 46°11' W 123°52'0 0.0
2015-Aug-26 00:34N 46°11' W 123°52'0 0.0
2015-Aug-25 23:34N 46°11' W 123°52'0 0.0
2015-Aug-25 22:34N 46°11' W 123°52'0 0.0
2015-Aug-25 21:34N 46°11' W 123°52'0 0.0
2015-Aug-25 20:33N 46°11' W 123°52'0 0.0
2015-Aug-25 19:34N 46°11' W 123°52'0 0.0
2015-Aug-25 18:33N 46°11' W 123°52'0 0.0
2015-Aug-25 17:33N 46°11' W 123°52'0 0.0
2015-Aug-25 16:34N 46°11' W 123°52'0 0.0
2015-Aug-25 15:34N 46°11' W 123°52'0 0.0
2015-Aug-25 14:34N 46°11' W 123°52'0 0.0
2015-Aug-25 13:34N 46°11' W 123°52'0 0.0
2015-Aug-25 12:34N 46°11' W 123°52'0 0.0
2015-Aug-25 11:34N 46°11' W 123°52'0 0.0
2015-Aug-25 10:34N 46°11' W 123°52'0 0.0
2015-Aug-25 09:34N 46°11' W 123°52'0 0.0
2015-Aug-25 08:33N 46°11' W 123°52'0 0.0
2015-Aug-25 07:34N 46°11' W 123°52'0 0.0
2015-Aug-25 06:34N 46°11' W 123°52'0 0.0
2015-Aug-25 05:34N 46°11' W 123°52'0 0.0
2015-Aug-25 04:34N 46°11' W 123°52'0 0.0
2015-Aug-25 03:34N 46°11' W 123°52'0 0.0
2015-Aug-25 02:34N 46°11' W 123°52'0 0.0
2015-Aug-25 01:34N 46°11' W 123°52'0 0.0
2015-Aug-25 00:33N 46°11' W 123°52'0 0.0
2015-Aug-24 23:34N 46°11' W 123°52'0 0.0
2015-Aug-24 22:34N 46°11' W 123°52'0 0.0
2015-Aug-24 21:34N 46°11' W 123°52'0 0.0
2015-Aug-24 20:34N 46°11' W 123°52'0 0.0
2015-Aug-24 19:34N 46°11' W 123°52'0 0.0
2015-Aug-24 18:34N 46°11' W 123°52'0 0.0
2015-Aug-24 17:34N 46°11' W 123°52'0 0.0
2015-Aug-24 16:34N 46°11' W 123°52'0 0.0
2015-Aug-24 15:34N 46°11' W 123°52'0 0.0
2015-Aug-24 14:34N 46°11' W 123°52'0 0.0
2015-Aug-24 13:34N 46°11' W 123°52'0 0.0
2015-Aug-24 12:34N 46°11' W 123°52'0 0.0
2015-Aug-24 11:34N 46°11' W 123°52'0 0.0
2015-Aug-24 10:34N 46°11' W 123°52'0 0.0
2015-Aug-24 09:34N 46°11' W 123°52'0 0.0
2015-Aug-24 08:34N 46°11' W 123°52'0 0.0
2015-Aug-24 07:34N 46°11' W 123°52'0 0.0
2015-Aug-24 06:34N 46°11' W 123°52'0 0.0
2015-Aug-24 05:34N 46°11' W 123°52'0 0.0
2015-Aug-24 04:34N 46°11' W 123°52'0 0.0
2015-Aug-24 03:34N 46°11' W 123°52'0 0.0
2015-Aug-24 02:34N 46°11' W 123°52'0 0.0
2015-Aug-24 01:34N 46°11' W 123°52'0 0.0
2015-Aug-24 00:34N 46°11' W 123°52'0 0.0
2015-Aug-23 23:34N 46°11' W 123°52'7 7.3
2015-Aug-23 22:34N 46°15' W 124°01'6 6.5
2015-Aug-23 21:34N 46°18' W 124°09'6 5.9
2015-Aug-23 20:34N 46°22' W 124°15'6 6.1
2015-Aug-23 19:34N 46°27' W 124°20'8 7.5
2015-Aug-23 18:33N 46°34' W 124°25'8 7.6
2015-Aug-23 17:33N 46°39' W 124°34'1 1.1
2015-Aug-23 16:34N 46°38' W 124°32'1 1.4
2015-Aug-23 15:33N 46°37' W 124°34'1 1.4
2015-Aug-23 14:33N 46°38' W 124°32'0 0.5
2015-Aug-23 13:33N 46°38' W 124°32'1 0.9
2015-Aug-23 12:33N 46°38' W 124°33'4 4.0
2015-Aug-23 11:33N 46°41' W 124°28'1 1.1
2015-Aug-23 10:34N 46°41' W 124°29'1 1.1
2015-Aug-23 09:33N 46°42' W 124°31'1 0.8
2015-Aug-23 08:33N 46°42' W 124°32'1 0.7
2015-Aug-23 07:33N 46°43' W 124°32'1 0.7
2015-Aug-23 06:34N 46°43' W 124°33'2 2.4
2015-Aug-23 05:34N 46°41' W 124°35'2 2.4
2015-Aug-23 04:33N 46°38' W 124°35'1 0.7
2015-Aug-23 03:33N 46°39' W 124°36'8 7.6
2015-Aug-23 02:33N 46°41' W 124°47'5 4.6
2015-Aug-23 01:33N 46°38' W 124°41'7 7.0
2015-Aug-23 00:34N 46°34' W 124°33'8 8.0
2015-Aug-22 23:33N 46°26' W 124°35'7 7.4
2015-Aug-22 22:33N 46°20' W 124°40'8 7.7
2015-Aug-22 21:33N 46°12' W 124°39'7 7.1
2015-Aug-22 20:34N 46°05' W 124°41'6 6.1
2015-Aug-22 19:33N 45°60' W 124°45'7 7.5
2015-Aug-22 18:34N 45°52' W 124°42'9 9.1
2015-Aug-22 17:33N 45°56' W 124°30'1111.0
2015-Aug-22 16:33N 46°04' W 124°19'1110.9
2015-Aug-22 15:33N 46°12' W 124°08'9 8.9
2015-Aug-22 14:34N 46°12' W 123°55'4 3.6
2015-Aug-22 13:34N 46°12' W 123°50'1 1.1
2015-Aug-22 12:34N 46°11' W 123°52'0 0.0
2015-Aug-22 11:34N 46°11' W 123°52'0 0.0
2015-Aug-22 10:34N 46°11' W 123°52'0 0.0
2015-Aug-22 09:34N 46°11' W 123°52'0 0.0
2015-Aug-22 08:34N 46°11' W 123°52'5 5.0
2015-Aug-22 07:34N 46°14' W 123°58'6 5.5
2015-Aug-22 06:34N 46°13' W 124°06'9 8.9
2015-Aug-22 05:33N 46°07' W 124°15'9 9.0
2015-Aug-22 04:34N 46°01' W 124°25'9 9.1
2015-Aug-22 03:33N 45°55' W 124°35'9 8.9
2015-Aug-22 02:33N 45°49' W 124°44'1 1.4
2015-Aug-22 01:33N 45°50' W 124°45'1 1.3
2015-Aug-22 00:33N 45°48' W 124°44'3 2.8
2015-Aug-21 23:33N 45°46' W 124°43'1 0.6
2015-Aug-21 22:33N 45°46' W 124°44'3 3.1
2015-Aug-21 21:33N 45°49' W 124°43'9 9.2
2015-Aug-21 20:33N 45°55' W 124°34'1110.9
2015-Aug-21 19:34N 46°03' W 124°23'1110.8
2015-Aug-21 18:33N 46°11' W 124°12'1010.3
2015-Aug-21 17:34N 46°13' W 123°57'4 4.3
2015-Aug-21 16:33N 46°11' W 123°52'0 0.0
2015-Aug-21 15:34N 46°11' W 123°52'0 0.0
2015-Aug-21 14:33N 46°11' W 123°52'0 0.0
2015-Aug-21 13:34N 46°11' W 123°52'0 0.0
2015-Aug-21 12:34N 46°11' W 123°52'0 0.3
2015-Aug-21 11:34N 46°11' W 123°52'9 8.9
2015-Aug-21 10:33N 46°15' W 124°04'7 7.0
2015-Aug-21 09:33N 46°09' W 124°09'6 6.2
2015-Aug-21 08:34N 46°03' W 124°12'6 6.2
2015-Aug-21 07:34N 45°57' W 124°15'6 6.2
2015-Aug-21 06:33N 45°51' W 124°18'6 6.2
2015-Aug-21 05:34N 45°45' W 124°20'6 5.9
2015-Aug-21 04:33N 45°40' W 124°23'6 5.8
2015-Aug-21 03:33N 45°34' W 124°26'7 6.7
2015-Aug-21 02:33N 45°28' W 124°27'8 6.7
2015-Aug-21 01:27N 45°21' W 124°32'15 4.0
2015-Aug-20 21:33N 45°09' W 124°45'3 2.8
2015-Aug-20 20:28N 45°06' W 124°45'0 0.5
2015-Aug-20 19:33N 45°05' W 124°44'3 2.8
2015-Aug-20 18:30N 45°08' W 124°46'0 0.5
2015-Aug-20 17:32N 45°08' W 124°45'1 0.3
2015-Aug-20 14:28N 45°08' W 124°46'2 2.0
2015-Aug-20 13:17N 45°10' W 124°45'2 2.6
2015-Aug-20 12:33N 45°10' W 124°47'2 2.0
2015-Aug-20 11:31N 45°08' W 124°46'3 2.1
2015-Aug-20 10:17N 45°06' W 124°44'1 2.0
2015-Aug-20 09:33N 45°05' W 124°43'1 0.7
2015-Aug-20 08:34N 45°06' W 124°43'3 3.0
2015-Aug-20 07:33N 45°08' W 124°45'3 1.2
2015-Aug-20 05:08N 45°05' W 124°45'0 0.4
2015-Aug-20 04:24N 45°06' W 124°45'3 3.1
2015-Aug-20 03:24N 45°09' W 124°46'4 2.1
2015-Aug-20 01:33N 45°05' W 124°44'6 1.4
2015-Aug-19 21:32N 45°11' W 124°44'8 6.8
2015-Aug-19 20:25N 45°17' W 124°39'9 9.8
2015-Aug-19 19:33N 45°25' W 124°35'7 7.1
2015-Aug-19 18:33N 45°32' W 124°30'3 2.6
2015-Aug-19 17:33N 45°29' W 124°30'3 3.0
2015-Aug-19 16:33N 45°27' W 124°28'3 2.9
2015-Aug-19 15:33N 45°30' W 124°29'9 9.1
2015-Aug-19 14:33N 45°39' W 124°31'8 8.1
2015-Aug-19 13:33N 45°47' W 124°28'10 9.8
2015-Aug-19 12:33N 45°55' W 124°21'10 9.8
2015-Aug-19 11:34N 46°03' W 124°14'10 9.6
2015-Aug-19 10:33N 46°12' W 124°08'7 6.7
2015-Aug-19 09:33N 46°14' W 123°58'  
Track history (hours):
 
Tides and Currents Weather Stations Pressure Air Temp Water Temp Dewpoint Dewpoint Depression Visibility Wind Speed Wind Dir Waves Ship Positions

Perseverance

Owner: Cooper, Mark E, Toledo, OR. More information available from US FCC via Universal Licensing System and Coast Guard Vessel Documentation Center.

Last reported at 2015-Aug-29 08:34 UTC. Time now 2015-Aug-29 09:25 UTC.
Position N 46°11' W 123°52'.

MMSI: 367618000.

Date/timePositionNaut miles runAvg speedWind from/ knotsBaromVisibWave heightAir tempDewpointWater temp
2015-Aug-29 08:34N 46°11' W 123°52'0 0.0
2015-Aug-29 07:34N 46°11' W 123°52'0 0.0
2015-Aug-29 06:34N 46°11' W 123°52'1 1.3
2015-Aug-29 05:34N 46°11' W 123°54'9 8.9
2015-Aug-29 04:34N 46°14' W 124°06'8 7.7
2015-Aug-29 03:34N 46°10' W 124°15'8 7.6
2015-Aug-29 02:34N 46°06' W 124°25'8 8.3
2015-Aug-29 01:33N 46°01' W 124°34'7 7.1
2015-Aug-29 00:33N 45°58' W 124°43'2 2.5
2015-Aug-28 23:33N 45°55' W 124°44'3 3.0
2015-Aug-28 22:33N 45°52' W 124°44'3 3.0
2015-Aug-28 21:34N 45°49' W 124°44'3 3.1
2015-Aug-28 20:33N 45°46' W 124°43'4 4.5
2015-Aug-28 19:34N 45°51' W 124°44'7 7.4
2015-Aug-28 18:33N 45°58' W 124°44'2 2.3
2015-Aug-28 17:33N 45°56' W 124°45'7 6.6
2015-Aug-28 16:33N 45°50' W 124°44'6 6.1
2015-Aug-28 15:34N 45°44' W 124°46'6 5.6
2015-Aug-28 14:33N 45°40' W 124°40'3 2.8
2015-Aug-28 13:34N 45°39' W 124°36'0 0.5
2015-Aug-28 12:33N 45°39' W 124°37'0 0.4
2015-Aug-28 11:33N 45°39' W 124°37'0 0.4
2015-Aug-28 10:33N 45°38' W 124°38'0 0.3
2015-Aug-28 09:33N 45°38' W 124°38'0 0.2
2015-Aug-28 08:34N 45°38' W 124°37'2 2.2
2015-Aug-28 07:33N 45°36' W 124°39'3 3.3
2015-Aug-28 06:34N 45°32' W 124°39'4 3.6
2015-Aug-28 05:33N 45°29' W 124°40'5 4.8
2015-Aug-28 04:34N 45°24' W 124°41'5 4.3
2015-Aug-28 03:29N 45°20' W 124°43'3 3.3
2015-Aug-28 02:34N 45°17' W 124°45'8 7.9
2015-Aug-28 01:31N 45°09' W 124°45'8 8.5
2015-Aug-28 00:33N 45°00' W 124°44'6 6.3
2015-Aug-27 23:34N 44°60' W 124°35'9 8.5
2015-Aug-27 22:33N 45°07' W 124°29'9 8.9
2015-Aug-27 21:33N 45°15' W 124°24'9 8.9
2015-Aug-27 20:33N 45°24' W 124°25'9 8.9
2015-Aug-27 19:33N 45°33' W 124°28'6 6.0
2015-Aug-27 18:33N 45°38' W 124°33'9 8.5
2015-Aug-27 17:33N 45°43' W 124°42'6 6.4
2015-Aug-27 16:33N 45°50' W 124°43'3 2.8
2015-Aug-27 15:33N 45°47' W 124°43'4 4.4
2015-Aug-27 14:33N 45°51' W 124°43'1 1.0
2015-Aug-27 13:34N 45°52' W 124°43'1 0.8
2015-Aug-27 12:33N 45°53' W 124°42'0 0.1
2015-Aug-27 11:33N 45°53' W 124°43'4 4.1
2015-Aug-27 10:33N 45°55' W 124°38'4 4.1
2015-Aug-27 09:33N 45°58' W 124°34'4 4.1
2015-Aug-27 08:34N 46°01' W 124°30'4 4.5
2015-Aug-27 07:33N 46°04' W 124°24'4 4.4
2015-Aug-27 06:34N 46°07' W 124°19'4 3.9
2015-Aug-27 05:34N 46°09' W 124°15'5 5.4
2015-Aug-27 04:34N 46°13' W 124°09'6 6.3
2015-Aug-27 03:34N 46°15' W 124°01'7 6.8
2015-Aug-27 02:33N 46°11' W 123°53'0 0.5
2015-Aug-27 01:34N 46°11' W 123°52'0 0.0
2015-Aug-27 00:34N 46°11' W 123°52'0 0.0
2015-Aug-26 23:34N 46°11' W 123°52'0 0.0
2015-Aug-26 22:34N 46°11' W 123°52'0 0.0
2015-Aug-26 21:34N 46°11' W 123°52'0 0.0
2015-Aug-26 20:34N 46°11' W 123°52'0 0.0
2015-Aug-26 19:34N 46°11' W 123°52'0 0.0
2015-Aug-26 18:34N 46°11' W 123°52'0 0.0
2015-Aug-26 17:33N 46°11' W 123°52'0 0.0
2015-Aug-26 16:33N 46°11' W 123°52'0 0.0
2015-Aug-26 15:34N 46°11' W 123°52'0 0.0
2015-Aug-26 14:34N 46°11' W 123°52'0 0.0
2015-Aug-26 13:34N 46°11' W 123°52'0 0.0
2015-Aug-26 12:34N 46°11' W 123°52'0 0.0
2015-Aug-26 11:34N 46°11' W 123°52'0 0.0
2015-Aug-26 10:34N 46°11' W 123°52'0 0.0
2015-Aug-26 09:34N 46°11' W 123°52'0 0.0
2015-Aug-26 08:34N 46°11' W 123°52'0 0.0
2015-Aug-26 07:34N 46°11' W 123°52'0 0.0
2015-Aug-26 06:34N 46°11' W 123°52'0 0.0
2015-Aug-26 05:34N 46°11' W 123°52'0 0.0
2015-Aug-26 04:34N 46°11' W 123°52'0 0.0
2015-Aug-26 03:34N 46°11' W 123°52'0 0.0
2015-Aug-26 02:34N 46°11' W 123°52'0 0.0
2015-Aug-26 01:34N 46°11' W 123°52'0 0.0
2015-Aug-26 00:34N 46°11' W 123°52'0 0.0
2015-Aug-25 23:34N 46°11' W 123°52'0 0.0
2015-Aug-25 22:34N 46°11' W 123°52'0 0.0
2015-Aug-25 21:34N 46°11' W 123°52'0 0.0
2015-Aug-25 20:33N 46°11' W 123°52'0 0.0
2015-Aug-25 19:34N 46°11' W 123°52'0 0.0
2015-Aug-25 18:33N 46°11' W 123°52'0 0.0
2015-Aug-25 17:33N 46°11' W 123°52'0 0.0
2015-Aug-25 16:34N 46°11' W 123°52'0 0.0
2015-Aug-25 15:34N 46°11' W 123°52'0 0.0
2015-Aug-25 14:34N 46°11' W 123°52'0 0.0
2015-Aug-25 13:34N 46°11' W 123°52'0 0.0
2015-Aug-25 12:34N 46°11' W 123°52'0 0.0
2015-Aug-25 11:34N 46°11' W 123°52'0 0.0
2015-Aug-25 10:34N 46°11' W 123°52'0 0.0
2015-Aug-25 09:34N 46°11' W 123°52'0 0.0
2015-Aug-25 08:33N 46°11' W 123°52'0 0.0
2015-Aug-25 07:34N 46°11' W 123°52'0 0.0
2015-Aug-25 06:34N 46°11' W 123°52'0 0.0
2015-Aug-25 05:34N 46°11' W 123°52'0 0.0
2015-Aug-25 04:34N 46°11' W 123°52'0 0.0
2015-Aug-25 03:34N 46°11' W 123°52'0 0.0
2015-Aug-25 02:34N 46°11' W 123°52'0 0.0
2015-Aug-25 01:34N 46°11' W 123°52'0 0.0
2015-Aug-25 00:33N 46°11' W 123°52'0 0.0
2015-Aug-24 23:34N 46°11' W 123°52'0 0.0
2015-Aug-24 22:34N 46°11' W 123°52'0 0.0
2015-Aug-24 21:34N 46°11' W 123°52'0 0.0
2015-Aug-24 20:34N 46°11' W 123°52'0 0.0
2015-Aug-24 19:34N 46°11' W 123°52'0 0.0
2015-Aug-24 18:34N 46°11' W 123°52'0 0.0
2015-Aug-24 17:34N 46°11' W 123°52'0 0.0
2015-Aug-24 16:34N 46°11' W 123°52'0 0.0
2015-Aug-24 15:34N 46°11' W 123°52'0 0.0
2015-Aug-24 14:34N 46°11' W 123°52'0 0.0
2015-Aug-24 13:34N 46°11' W 123°52'0 0.0
2015-Aug-24 12:34N 46°11' W 123°52'0 0.0
2015-Aug-24 11:34N 46°11' W 123°52'0 0.0
2015-Aug-24 10:34N 46°11' W 123°52'0 0.0
2015-Aug-24 09:34N 46°11' W 123°52'0 0.0
2015-Aug-24 08:34N 46°11' W 123°52'0 0.0
2015-Aug-24 07:34N 46°11' W 123°52'0 0.0
2015-Aug-24 06:34N 46°11' W 123°52'0 0.0
2015-Aug-24 05:34N 46°11' W 123°52'0 0.0
2015-Aug-24 04:34N 46°11' W 123°52'0 0.0
2015-Aug-24 03:34N 46°11' W 123°52'0 0.0
2015-Aug-24 02:34N 46°11' W 123°52'0 0.0
2015-Aug-24 01:34N 46°11' W 123°52'0 0.0
2015-Aug-24 00:34N 46°11' W 123°52'0 0.0
2015-Aug-23 23:34N 46°11' W 123°52'7 7.3
2015-Aug-23 22:34N 46°15' W 124°01'6 6.5
2015-Aug-23 21:34N 46°18' W 124°09'6 5.9
2015-Aug-23 20:34N 46°22' W 124°15'6 6.1
2015-Aug-23 19:34N 46°27' W 124°20'8 7.5
2015-Aug-23 18:33N 46°34' W 124°25'8 7.6
2015-Aug-23 17:33N 46°39' W 124°34'1 1.1
2015-Aug-23 16:34N 46°38' W 124°32'1 1.4
2015-Aug-23 15:33N 46°37' W 124°34'1 1.4
2015-Aug-23 14:33N 46°38' W 124°32'0 0.5
2015-Aug-23 13:33N 46°38' W 124°32'1 0.9
2015-Aug-23 12:33N 46°38' W 124°33'4 4.0
2015-Aug-23 11:33N 46°41' W 124°28'1 1.1
2015-Aug-23 10:34N 46°41' W 124°29'1 1.1
2015-Aug-23 09:33N 46°42' W 124°31'1 0.8
2015-Aug-23 08:33N 46°42' W 124°32'1 0.7
2015-Aug-23 07:33N 46°43' W 124°32'1 0.7
2015-Aug-23 06:34N 46°43' W 124°33'2 2.4
2015-Aug-23 05:34N 46°41' W 124°35'2 2.4
2015-Aug-23 04:33N 46°38' W 124°35'1 0.7
2015-Aug-23 03:33N 46°39' W 124°36'8 7.6
2015-Aug-23 02:33N 46°41' W 124°47'5 4.6
2015-Aug-23 01:33N 46°38' W 124°41'7 7.0
2015-Aug-23 00:34N 46°34' W 124°33'8 8.0
2015-Aug-22 23:33N 46°26' W 124°35'7 7.4
2015-Aug-22 22:33N 46°20' W 124°40'8 7.7
2015-Aug-22 21:33N 46°12' W 124°39'7 7.1
2015-Aug-22 20:34N 46°05' W 124°41'6 6.1
2015-Aug-22 19:33N 45°60' W 124°45'7 7.5
2015-Aug-22 18:34N 45°52' W 124°42'9 9.1
2015-Aug-22 17:33N 45°56' W 124°30'1111.0
2015-Aug-22 16:33N 46°04' W 124°19'1110.9
2015-Aug-22 15:33N 46°12' W 124°08'9 8.9
2015-Aug-22 14:34N 46°12' W 123°55'4 3.6
2015-Aug-22 13:34N 46°12' W 123°50'1 1.1
2015-Aug-22 12:34N 46°11' W 123°52'0 0.0
2015-Aug-22 11:34N 46°11' W 123°52'0 0.0
2015-Aug-22 10:34N 46°11' W 123°52'0 0.0
2015-Aug-22 09:34N 46°11' W 123°52'0 0.0
2015-Aug-22 08:34N 46°11' W 123°52'5 5.0
2015-Aug-22 07:34N 46°14' W 123°58'6 5.5
2015-Aug-22 06:34N 46°13' W 124°06'9 8.9
2015-Aug-22 05:33N 46°07' W 124°15'9 9.0
2015-Aug-22 04:34N 46°01' W 124°25'9 9.1
2015-Aug-22 03:33N 45°55' W 124°35'9 8.9
2015-Aug-22 02:33N 45°49' W 124°44'1 1.4
2015-Aug-22 01:33N 45°50' W 124°45'1 1.3
2015-Aug-22 00:33N 45°48' W 124°44'3 2.8
2015-Aug-21 23:33N 45°46' W 124°43'1 0.6
2015-Aug-21 22:33N 45°46' W 124°44'3 3.1
2015-Aug-21 21:33N 45°49' W 124°43'9 9.2
2015-Aug-21 20:33N 45°55' W 124°34'1110.9
2015-Aug-21 19:34N 46°03' W 124°23'1110.8
2015-Aug-21 18:33N 46°11' W 124°12'1010.3
2015-Aug-21 17:34N 46°13' W 123°57'4 4.3
2015-Aug-21 16:33N 46°11' W 123°52'0 0.0
2015-Aug-21 15:34N 46°11' W 123°52'0 0.0
2015-Aug-21 14:33N 46°11' W 123°52'0 0.0
2015-Aug-21 13:34N 46°11' W 123°52'0 0.0
2015-Aug-21 12:34N 46°11' W 123°52'0 0.3
2015-Aug-21 11:34N 46°11' W 123°52'9 8.9
2015-Aug-21 10:33N 46°15' W 124°04'7 7.0
2015-Aug-21 09:33N 46°09' W 124°09'6 6.2
2015-Aug-21 08:34N 46°03' W 124°12'6 6.2
2015-Aug-21 07:34N 45°57' W 124°15'6 6.2
2015-Aug-21 06:33N 45°51' W 124°18'6 6.2
2015-Aug-21 05:34N 45°45' W 124°20'6 5.9
2015-Aug-21 04:33N 45°40' W 124°23'6 5.8
2015-Aug-21 03:33N 45°34' W 124°26'7 6.7
2015-Aug-21 02:33N 45°28' W 124°27'8 6.7
2015-Aug-21 01:27N 45°21' W 124°32'15 4.0
2015-Aug-20 21:33N 45°09' W 124°45'3 2.8
2015-Aug-20 20:28N 45°06' W 124°45'0 0.5
2015-Aug-20 19:33N 45°05' W 124°44'3 2.8
2015-Aug-20 18:30N 45°08' W 124°46'0 0.5
2015-Aug-20 17:32N 45°08' W 124°45'1 0.3
2015-Aug-20 14:28N 45°08' W 124°46'2 2.0
2015-Aug-20 13:17N 45°10' W 124°45'2 2.6
2015-Aug-20 12:33N 45°10' W 124°47'2 2.0
2015-Aug-20 11:31N 45°08' W 124°46'3 2.1
2015-Aug-20 10:17N 45°06' W 124°44'1 2.0
2015-Aug-20 09:33N 45°05' W 124°43'1 0.7
2015-Aug-20 08:34N 45°06' W 124°43'3 3.0
2015-Aug-20 07:33N 45°08' W 124°45'3 1.2
2015-Aug-20 05:08N 45°05' W 124°45'0 0.4
2015-Aug-20 04:24N 45°06' W 124°45'3 3.1
2015-Aug-20 03:24N 45°09' W 124°46'4 2.1
2015-Aug-20 01:33N 45°05' W 124°44'6 1.4
2015-Aug-19 21:32N 45°11' W 124°44'8 6.8
2015-Aug-19 20:25N 45°17' W 124°39'9 9.8
2015-Aug-19 19:33N 45°25' W 124°35'7 7.1
2015-Aug-19 18:33N 45°32' W 124°30'3 2.6
2015-Aug-19 17:33N 45°29' W 124°30'3 3.0
2015-Aug-19 16:33N 45°27' W 124°28'3 2.9
2015-Aug-19 15:33N 45°30' W 124°29'9 9.1
2015-Aug-19 14:33N 45°39' W 124°31'8 8.1
2015-Aug-19 13:33N 45°47' W 124°28'10 9.8
2015-Aug-19 12:33N 45°55' W 124°21'10 9.8
2015-Aug-19 11:34N 46°03' W 124°14'10 9.6
2015-Aug-19 10:33N 46°12' W 124°08'7 6.7
2015-Aug-19 09:33N 46°14' W 123°58'  

Dump ship's entire track history